createdAt,value
2024-04-19T00:01:32.031Z,100703.72
2024-04-19T00:03:59.768Z,100707.69
2024-04-19T00:06:34.285Z,100704.63
2024-04-19T00:09:02.226Z,100692.84
2024-04-19T00:11:34.416Z,100696.66
2024-04-19T00:14:01.956Z,100691.25
2024-04-19T00:16:37.289Z,100690.84
2024-04-19T00:19:06.538Z,100683.41
2024-04-19T00:21:40.518Z,100682.28
2024-04-19T00:24:08.022Z,100675.78
2024-04-19T00:26:38.056Z,100683.06
2024-04-19T00:29:05.620Z,100669.56
2024-04-19T00:31:35.636Z,100662.66
2024-04-19T00:34:03.222Z,100652.47
2024-04-19T00:36:34.203Z,100648.56
2024-04-19T00:39:04.380Z,100648.28
2024-04-19T00:41:34.545Z,100642.47
2024-04-19T00:44:02.073Z,100638.44
2024-04-19T00:46:33.326Z,100635.94
2024-04-19T00:49:01.612Z,100631.75
2024-04-19T00:51:33.247Z,100623.09
2024-04-19T00:54:04.559Z,100621.34
2024-04-19T00:56:35.237Z,100613.44
2024-04-19T00:59:03.869Z,100611.56
2024-04-19T01:01:34.456Z,100605.53
2024-04-19T01:04:02.368Z,100596.63
2024-04-19T01:06:32.474Z,100597.69
2024-04-19T01:08:59.997Z,100577.44
2024-04-19T01:11:38.348Z,100583.91
2024-04-19T01:14:06.280Z,100569.13
2024-04-19T01:16:36.772Z,100564.34
2024-04-19T01:19:07.748Z,100554.94
2024-04-19T01:21:41.342Z,100557.91
2024-04-19T01:24:15.231Z,100548.78
2024-04-19T01:26:47.734Z,100543.38
2024-04-19T01:29:15.679Z,100537.50
2024-04-19T01:31:45.578Z,100533.78
2024-04-19T01:34:12.948Z,100529.59
2024-04-19T01:36:43.148Z,100529.97
2024-04-19T01:39:10.537Z,100527.03
2024-04-19T01:41:40.790Z,100523.28
2024-04-19T01:44:10.772Z,100521.25
2024-04-19T01:46:40.700Z,100517.53
2024-04-19T01:49:08.433Z,100511.84
2024-04-19T01:51:39.378Z,100510.19
2024-04-19T01:54:06.970Z,100500.34
2024-04-19T01:56:37.019Z,100494.88
2024-04-19T01:59:04.356Z,100493.47
2024-04-19T02:01:37.909Z,100490.22
2024-04-19T02:04:05.869Z,100486.84
2024-04-19T02:06:37.346Z,100484.91
2024-04-19T02:09:05.011Z,100475.59
2024-04-19T02:11:35.072Z,100479.31
2024-04-19T02:14:02.685Z,100468.56
2024-04-19T02:16:32.937Z,100470.13
2024-04-19T02:19:06.187Z,100451.22
2024-04-19T02:21:34.612Z,100453.88
2024-04-19T02:24:08.099Z,100442.03
2024-04-19T02:26:35.957Z,100437.53
2024-04-19T02:29:23.099Z,100430.03
2024-04-19T02:31:57.586Z,100427.13
2024-04-19T02:34:31.568Z,100423.00
2024-04-19T02:36:58.878Z,100421.00
2024-04-19T02:39:28.839Z,100406.81
2024-04-19T02:41:58.899Z,100406.81
2024-04-19T02:44:50.324Z,100402.97
2024-04-19T02:47:20.237Z,100394.69
2024-04-19T02:49:52.699Z,100398.34
2024-04-19T02:52:22.627Z,100381.44
2024-04-19T02:54:50.148Z,100368.06
2024-04-19T02:57:20.144Z,100366.38
2024-04-19T02:59:50.190Z,100364.94
2024-04-19T03:02:20.112Z,100359.16
2024-04-19T03:04:52.731Z,100344.19
2024-04-19T03:07:22.644Z,100345.03
2024-04-19T03:09:52.804Z,100338.38
2024-04-19T03:12:22.768Z,100338.22
2024-04-19T03:14:53.487Z,100326.72
2024-04-19T03:17:23.384Z,100307.31
2024-04-19T03:19:56.076Z,100302.16
2024-04-19T03:22:25.928Z,100294.16
2024-04-19T03:24:55.871Z,100281.03
2024-04-19T03:27:25.890Z,100278.53
2024-04-19T03:29:58.032Z,100266.47
2024-04-19T03:32:26.395Z,100262.38
2024-04-19T03:34:59.190Z,100257.50
2024-04-19T03:37:29.089Z,100247.72
2024-04-19T03:40:02.220Z,100248.00
2024-04-19T03:42:32.748Z,100236.03
2024-04-19T03:45:19.014Z,100232.97
2024-04-19T03:47:48.996Z,100228.84
2024-04-19T03:50:21.541Z,100209.19
2024-04-19T03:52:51.512Z,100203.28
2024-04-19T03:55:21.548Z,100203.47
2024-04-19T03:57:53.010Z,100191.16
2024-04-19T04:00:23.303Z,100185.47
2024-04-19T04:02:54.346Z,100177.75
2024-04-19T04:05:27.434Z,100181.47
2024-04-19T04:07:57.449Z,100169.31
2024-04-19T04:10:27.394Z,100159.41
2024-04-19T04:12:59.634Z,100160.34
2024-04-19T04:15:29.759Z,100150.13
2024-04-19T04:18:03.191Z,100143.66
2024-04-19T04:20:36.079Z,100137.00
2024-04-19T04:23:06.429Z,100124.28
2024-04-19T04:25:38.549Z,100112.84
2024-04-19T04:28:08.953Z,100113.50
2024-04-19T04:30:42.457Z,100105.34
2024-04-19T04:33:13.116Z,100105.78
2024-04-19T04:35:51.026Z,100088.16
2024-04-19T04:38:21.449Z,100090.22
2024-04-19T04:40:55.131Z,100084.41
2024-04-19T04:43:26.301Z,100083.63
2024-04-19T04:45:56.559Z,100086.53
2024-04-19T04:48:26.842Z,100075.75
2024-04-19T04:51:01.052Z,100073.34
2024-04-19T04:53:31.435Z,100064.16
2024-04-19T04:56:01.744Z,100064.91
2024-04-19T04:58:32.837Z,100065.00
2024-04-19T05:01:03.468Z,100058.41
2024-04-19T05:03:33.860Z,100053.41
2024-04-19T05:06:06.944Z,100050.13
2024-04-19T05:08:36.964Z,100041.03
2024-04-19T05:11:07.835Z,100038.53
2024-04-19T05:13:38.210Z,100035.66
2024-04-19T05:16:08.982Z,100030.06
2024-04-19T05:18:39.019Z,100026.16
2024-04-19T05:21:11.781Z,100016.13
2024-04-19T05:23:42.819Z,100017.78
2024-04-19T05:26:12.759Z,100009.94
2024-04-19T05:28:42.883Z,100004.28
2024-04-19T05:31:13.020Z,99999.38
2024-04-19T05:33:43.196Z,99996.06
2024-04-19T05:36:15.879Z,99993.56
2024-04-19T05:38:46.277Z,99999.06
2024-04-19T05:41:16.243Z,99979.34
2024-04-19T05:43:49.629Z,99982.16
2024-04-19T05:46:19.808Z,99970.44
2024-04-19T05:48:49.959Z,99974.78
2024-04-19T05:51:22.987Z,99962.94
2024-04-19T05:53:53.689Z,99964.41
2024-04-19T05:56:26.148Z,99960.50
2024-04-19T05:58:58.308Z,99948.81
2024-04-19T06:01:28.294Z,99949.66
2024-04-19T06:03:59.140Z,99944.91
2024-04-19T06:06:31.727Z,99942.50
2024-04-19T06:09:01.727Z,99948.19
2024-04-19T06:11:31.650Z,99934.34
2024-04-19T06:14:01.978Z,99925.06
2024-04-19T06:16:31.864Z,99922.16
2024-04-19T06:19:02.210Z,99921.34
2024-04-19T06:21:36.345Z,99908.13
2024-04-19T06:24:06.769Z,99910.44
2024-04-19T06:26:36.985Z,99902.75
2024-04-19T06:29:07.909Z,99884.16
2024-04-19T06:31:39.811Z,99886.59
2024-04-19T06:34:10.173Z,99893.56
2024-04-19T06:36:43.988Z,99884.53
2024-04-19T06:39:23.643Z,99884.53
2024-04-19T06:41:54.621Z,99883.38
2024-04-19T06:44:25.035Z,99869.97
2024-04-19T06:46:55.358Z,99872.47
2024-04-19T06:49:26.948Z,99867.28
2024-04-19T06:52:00.114Z,99868.72
2024-04-19T06:54:30.366Z,99859.88
2024-04-19T06:57:02.826Z,99865.72
2024-04-19T06:59:34.637Z,99849.59
2024-04-19T07:02:05.345Z,99845.59
2024-04-19T07:04:35.504Z,99837.31
2024-04-19T07:07:08.806Z,99840.44
2024-04-19T07:09:39.182Z,99829.66
2024-04-19T07:12:09.607Z,99820.56
2024-04-19T07:14:41.054Z,99825.97
2024-04-19T07:17:11.722Z,99823.25
2024-04-19T07:19:41.726Z,99814.88
2024-04-19T07:22:15.745Z,99820.91
2024-04-19T07:24:45.763Z,99817.66
2024-04-19T07:27:16.144Z,99817.91
2024-04-19T07:29:46.335Z,99817.31
2024-04-19T07:32:16.642Z,99818.78
2024-04-19T07:34:52.049Z,99814.81
2024-04-19T07:37:24.764Z,99810.06
2024-04-19T07:39:54.679Z,99805.09
2024-04-19T07:42:24.768Z,99811.38
2024-04-19T07:44:54.833Z,99803.91
2024-04-19T07:47:24.843Z,99803.09
2024-04-19T07:49:54.687Z,99803.75
2024-04-19T07:52:27.172Z,99796.34
2024-04-19T07:54:57.043Z,99801.75
2024-04-19T07:57:26.944Z,99795.31
2024-04-19T07:59:57.056Z,99792.19
2024-04-19T08:02:27.129Z,99787.84
2024-04-19T08:04:57.149Z,99787.28
2024-04-19T08:07:38.767Z,99777.75
2024-04-19T08:10:10.754Z,99781.91
2024-04-19T08:12:40.756Z,99769.88
2024-04-19T08:15:11.927Z,99768.66
2024-04-19T08:17:42.708Z,99763.69
2024-04-19T08:20:13.154Z,99756.88
2024-04-19T08:22:45.698Z,99762.88
2024-04-19T08:25:15.646Z,99757.03
2024-04-19T08:27:46.091Z,99759.34
2024-04-19T08:30:16.896Z,99759.13
2024-04-19T08:32:47.411Z,99748.72
2024-04-19T08:35:19.250Z,99759.72
2024-04-19T08:37:52.281Z,99756.63
2024-04-19T08:40:22.784Z,99749.75
2024-04-19T08:42:53.971Z,99742.50
2024-04-19T08:45:24.936Z,99750.59
2024-04-19T08:47:57.375Z,99744.59
2024-04-19T08:50:29.631Z,99741.25
2024-04-19T08:53:15.151Z,99745.63
2024-04-19T08:55:47.350Z,99752.88
2024-04-19T08:58:18.277Z,99738.34
2024-04-19T09:00:49.365Z,99736.28
2024-04-19T09:03:20.821Z,99734.19
2024-04-19T09:05:51.006Z,99735.63
2024-04-19T09:08:24.034Z,99731.28
2024-04-19T09:10:54.166Z,99729.78
2024-04-19T09:13:24.337Z,99726.97
2024-04-19T09:15:57.564Z,99723.28
2024-04-19T09:18:28.336Z,99718.28
2024-04-19T09:21:00.737Z,99706.97
2024-04-19T09:23:33.469Z,99691.38
2024-04-19T09:26:03.835Z,99698.00
2024-04-19T09:28:34.084Z,99693.09
2024-04-19T09:31:04.407Z,99683.66
2024-04-19T09:33:34.684Z,99687.69
2024-04-19T09:36:05.759Z,99683.41
2024-04-19T09:38:41.150Z,99672.00
2024-04-19T09:41:18.067Z,99681.38
2024-04-19T09:43:52.584Z,99684.72
2024-04-19T09:46:31.157Z,99684.19
2024-04-19T09:49:05.242Z,99673.53
2024-04-19T09:51:39.971Z,99664.88
2024-04-19T09:54:16.172Z,99659.31
2024-04-19T09:56:53.825Z,99655.03
2024-04-19T09:59:25.426Z,99656.09
2024-04-19T10:01:57.167Z,99650.97
2024-04-19T10:04:29.787Z,99657.84
2024-04-19T10:07:00.589Z,99660.44
2024-04-19T10:09:35.049Z,99660.94
2024-04-19T10:12:06.911Z,99668.69
2024-04-19T10:14:37.552Z,99662.34
2024-04-19T10:17:13.626Z,99660.72
2024-04-19T10:19:52.338Z,99663.25
2024-04-19T10:22:28.041Z,99660.75
2024-04-19T10:25:04.837Z,99656.94
2024-04-19T10:27:34.278Z,99648.78
2024-04-19T10:30:13.927Z,99636.34
2024-04-19T10:32:53.413Z,99636.13
2024-04-19T10:35:26.960Z,99637.31
2024-04-19T10:37:59.860Z,99626.81
2024-04-19T10:40:32.612Z,99624.78
2024-04-19T10:43:06.610Z,99613.81
2024-04-19T10:45:39.812Z,99615.78
2024-04-19T10:48:13.251Z,99610.91
2024-04-19T10:50:44.973Z,99603.69
2024-04-19T10:53:18.354Z,99603.34
2024-04-19T10:55:52.019Z,99601.78
2024-04-19T10:58:22.125Z,99604.53
2024-04-19T11:00:52.379Z,99601.03
2024-04-19T11:03:24.033Z,99596.59
2024-04-19T11:05:54.947Z,99595.16
2024-04-19T11:08:25.970Z,99596.22
2024-04-19T11:11:03.542Z,99593.81
2024-04-19T11:13:33.894Z,99605.91
2024-04-19T11:16:05.425Z,99607.41
2024-04-19T11:18:37.184Z,99607.13
2024-04-19T11:21:12.046Z,99590.06
2024-04-19T11:23:44.177Z,99585.84
2024-04-19T11:26:18.836Z,99581.00
2024-04-19T11:28:50.213Z,99574.56
2024-04-19T11:31:20.533Z,99562.38
2024-04-19T11:33:55.428Z,99563.34
2024-04-19T11:36:29.351Z,99561.81
2024-04-19T11:39:00.261Z,99554.88
2024-04-19T11:41:32.931Z,99550.78
2024-04-19T11:44:06.571Z,99545.59
2024-04-19T11:46:41.034Z,99547.66
2024-04-19T11:49:17.534Z,99539.28
2024-04-19T11:51:48.806Z,99533.47
2024-04-19T11:54:19.864Z,99532.28
2024-04-19T11:56:53.111Z,99530.38
2024-04-19T11:59:25.093Z,99528.13
2024-04-19T12:01:57.379Z,99523.50
2024-04-19T12:04:28.041Z,99523.63
2024-04-19T12:06:58.878Z,99532.41
2024-04-19T12:09:28.757Z,99542.47
2024-04-19T12:15:22.620Z,99545.78
2024-04-19T12:17:29.458Z,99554.34
2024-04-19T12:20:04.545Z,99571.03
2024-04-19T12:22:45.819Z,99588.63
2024-04-19T12:25:21.381Z,99592.38
2024-04-19T12:27:54.919Z,99595.84
2024-04-19T12:30:26.490Z,99596.91
2024-04-19T12:32:57.318Z,99583.44
2024-04-19T12:35:29.219Z,99561.72
2024-04-19T12:38:01.112Z,99561.09
2024-04-19T12:40:32.188Z,99557.84
2024-04-19T12:43:05.179Z,99552.78
2024-04-19T12:45:35.034Z,99548.56
2024-04-19T12:48:09.580Z,99551.88
2024-04-19T12:50:40.224Z,99546.13
2024-04-19T12:53:10.098Z,99555.31
2024-04-19T12:55:39.992Z,99558.25
2024-04-19T12:58:12.860Z,99544.13
2024-04-19T13:00:42.675Z,99533.56
2024-04-19T13:03:12.426Z,99532.66
2024-04-19T13:05:42.625Z,99535.88
2024-04-19T13:08:12.650Z,99527.22
2024-04-19T13:10:42.898Z,99532.28
2024-04-19T13:13:17.102Z,99522.81
2024-04-19T13:15:47.019Z,99523.56
2024-04-19T13:18:16.796Z,99525.94
2024-04-19T13:20:46.665Z,99517.81
2024-04-19T13:23:16.513Z,99520.28
2024-04-19T13:25:47.757Z,99517.94
2024-04-19T13:28:20.273Z,99515.16
2024-04-19T13:30:52.466Z,99525.78
2024-04-19T13:33:22.684Z,99520.47
2024-04-19T13:35:52.907Z,99519.94
2024-04-19T13:38:23.142Z,99521.19
2024-04-19T13:40:52.980Z,99519.53
2024-04-19T13:43:22.872Z,99529.31
2024-04-19T13:45:55.004Z,99525.56
2024-04-19T13:48:26.844Z,99536.84
2024-04-19T13:50:56.879Z,99522.94
2024-04-19T13:53:28.855Z,99529.69
2024-04-19T13:55:58.632Z,99526.97
2024-04-19T13:58:31.396Z,99535.50
2024-04-19T14:01:01.733Z,99523.91
2024-04-19T14:03:32.270Z,99521.69
2024-04-19T14:06:02.504Z,99516.38
2024-04-19T14:08:33.013Z,99524.16
2024-04-19T14:11:02.904Z,99525.75
2024-04-19T14:13:35.300Z,99530.28
2024-04-19T14:16:05.209Z,99525.16
2024-04-19T14:18:35.188Z,99536.03
2024-04-19T14:21:05.024Z,99518.06
2024-04-19T14:23:35.081Z,99523.34
2024-04-19T14:26:05.023Z,99522.38
2024-04-19T14:28:38.097Z,99530.53
2024-04-19T14:31:07.939Z,99525.41
2024-04-19T14:33:38.070Z,99528.97
2024-04-19T14:36:09.242Z,99525.31
2024-04-19T14:38:38.967Z,99534.03
2024-04-19T14:41:11.386Z,99528.41
2024-04-19T14:43:43.904Z,99530.44
2024-04-19T14:46:13.717Z,99531.59
2024-04-19T14:48:43.561Z,99530.44
2024-04-19T14:51:14.750Z,99522.03
2024-04-19T14:53:44.459Z,99518.66
2024-04-19T14:56:14.860Z,99513.34
2024-04-19T14:58:55.761Z,99512.63
2024-04-19T15:01:30.277Z,99517.09
2024-04-19T15:04:00.192Z,99511.13
2024-04-19T15:06:39.300Z,99517.22
2024-04-19T15:09:10.573Z,99501.56
2024-04-19T15:11:40.983Z,99502.00
2024-04-19T15:14:13.307Z,99499.78
2024-04-19T15:16:43.217Z,99500.63
2024-04-19T15:19:13.036Z,99505.59
2024-04-19T15:21:42.881Z,99503.22
2024-04-19T15:24:12.823Z,99504.31
2024-04-19T15:26:42.880Z,99500.59
2024-04-19T15:29:15.158Z,99495.25
2024-04-19T15:31:44.905Z,99492.38
2024-04-19T15:34:40.092Z,99483.94
2024-04-19T15:37:06.011Z,99487.75
2024-04-19T15:39:35.984Z,99486.34
2024-04-19T15:42:08.575Z,99497.13
2024-04-19T15:44:43.675Z,99500.59
2024-04-19T15:47:13.846Z,99498.78
2024-04-19T15:49:50.692Z,99500.47
2024-04-19T15:53:32.159Z,99504.25
2024-04-19T15:56:02.093Z,99507.44
2024-04-19T15:58:31.915Z,99513.25
2024-04-19T16:01:08.794Z,99514.78
2024-04-19T16:03:40.024Z,99522.44
2024-04-19T16:06:10.204Z,99529.59
2024-04-19T16:08:41.714Z,99537.66
2024-04-19T16:11:11.735Z,99526.66
2024-04-19T16:13:41.537Z,99525.34
2024-04-19T16:16:15.440Z,99518.41
2024-04-19T16:18:45.320Z,99519.78
2024-04-19T16:21:15.078Z,99518.59
2024-04-19T16:23:45.277Z,99522.78
2024-04-19T16:26:15.171Z,99526.56
2024-04-19T16:28:46.626Z,99529.06
2024-04-19T16:31:18.980Z,99531.53
2024-04-19T16:33:49.967Z,99534.72
2024-04-19T16:36:20.684Z,99531.63
2024-04-19T16:38:54.183Z,99531.72
2024-04-19T16:41:25.772Z,99537.72
2024-04-19T16:43:55.481Z,99537.53
2024-04-19T16:46:28.562Z,99540.56
2024-04-19T16:48:58.522Z,99548.78
2024-04-19T16:51:28.447Z,99543.22
2024-04-19T16:53:58.683Z,99561.84
2024-04-19T16:56:28.419Z,99557.03
2024-04-19T16:58:58.097Z,99543.28
2024-04-19T17:01:30.456Z,99546.97
2024-04-19T17:04:00.445Z,99551.16
2024-04-19T17:06:31.455Z,99558.09
2024-04-19T17:09:01.244Z,99551.56
2024-04-19T17:11:31.030Z,99558.31
2024-04-19T17:14:00.822Z,99559.47
2024-04-19T17:16:33.244Z,99550.59
2024-04-19T17:19:03.183Z,99557.44
2024-04-19T17:21:33.198Z,99554.28
2024-04-19T17:24:05.485Z,99564.06
2024-04-19T17:26:35.623Z,99569.63
2024-04-19T17:29:06.756Z,99559.00
2024-04-19T17:31:41.342Z,99559.97
2024-04-19T17:34:11.169Z,99562.94
2024-04-19T17:36:41.637Z,99561.28
2024-04-19T17:39:11.513Z,99565.03
2024-04-19T17:41:41.273Z,99573.56
2024-04-19T17:44:11.233Z,99569.09
2024-04-19T17:46:45.909Z,99579.09
2024-04-19T17:49:15.691Z,99574.91
2024-04-19T17:51:45.499Z,99585.31
2024-04-19T17:54:16.451Z,99590.78
2024-04-19T17:56:45.886Z,99576.00
2024-04-19T17:59:16.066Z,99586.97
2024-04-19T18:01:48.178Z,99594.25
2024-04-19T18:04:17.759Z,99598.88
2024-04-19T18:06:47.409Z,99616.22
2024-04-19T18:09:16.841Z,99602.94
2024-04-19T18:11:52.373Z,99606.03
2024-04-19T18:14:22.315Z,99611.44
2024-04-19T18:16:56.709Z,99618.13
2024-04-19T18:19:29.145Z,99617.97
2024-04-19T18:21:59.005Z,99622.97
2024-04-19T18:24:31.581Z,99620.66
2024-04-19T18:27:02.552Z,99622.28
2024-04-19T18:29:32.286Z,99628.09
2024-04-19T18:32:04.968Z,99625.41
2024-04-19T18:34:34.749Z,99626.25
2024-04-19T18:37:05.624Z,99639.91
2024-04-19T18:39:36.233Z,99632.50
2024-04-19T18:42:06.249Z,99636.56
2024-04-19T18:44:36.091Z,99642.75
2024-04-19T18:47:09.067Z,99651.03
2024-04-19T18:49:42.088Z,99653.75
2024-04-19T18:52:11.800Z,99658.09
2024-04-19T18:54:41.519Z,99661.84
2024-04-19T18:57:11.327Z,99673.88
2024-04-19T18:59:41.308Z,99671.84
2024-04-19T19:02:13.678Z,99678.50
2024-04-19T19:04:43.454Z,99681.63
2024-04-19T19:07:14.706Z,99685.00
2024-04-19T19:09:46.584Z,99689.53
2024-04-19T19:12:16.285Z,99705.78
2024-04-19T19:14:46.627Z,99707.69
2024-04-19T19:17:19.036Z,99711.84
2024-04-19T19:19:48.968Z,99720.53
2024-04-19T19:22:19.617Z,99731.34
2024-04-19T19:24:49.618Z,99727.19
2024-04-19T19:27:19.553Z,99744.41
2024-04-19T19:29:49.588Z,99746.06
2024-04-19T19:32:23.177Z,99761.03
2024-04-19T19:34:54.510Z,99758.75
2024-04-19T19:37:25.525Z,99758.53
2024-04-19T19:40:00.574Z,99764.53
2024-04-19T19:42:30.764Z,99771.38
2024-04-19T19:45:00.705Z,99767.88
2024-04-19T19:47:33.167Z,99772.25
2024-04-19T19:50:04.921Z,99777.81
2024-04-19T19:52:34.765Z,99787.31
2024-04-19T19:55:05.104Z,99791.91
2024-04-19T19:57:35.918Z,99788.16
2024-04-19T20:00:22.376Z,99798.97
2024-04-19T20:03:10.877Z,99810.13
2024-04-19T20:05:50.991Z,99816.16
2024-04-19T20:08:21.116Z,99812.28
2024-04-19T20:10:50.919Z,99818.91
2024-04-19T20:13:20.966Z,99825.56
2024-04-19T20:15:51.129Z,99830.94
2024-04-19T20:18:24.025Z,99833.03
2024-04-19T20:20:56.300Z,99832.81
2024-04-19T20:23:26.301Z,99840.06
2024-04-19T20:25:56.143Z,99855.22
2024-04-19T20:28:26.015Z,99850.22
2024-04-19T20:30:55.995Z,99853.28
2024-04-19T20:33:29.067Z,99859.75
2024-04-19T20:35:58.883Z,99874.00
2024-04-19T20:38:28.694Z,99884.13
2024-04-19T20:40:58.660Z,99884.34
2024-04-19T20:43:29.124Z,99892.88
2024-04-19T20:46:00.311Z,99901.97
2024-04-19T20:48:33.079Z,99909.25
2024-04-19T20:51:03.040Z,99923.09
2024-04-19T20:53:33.054Z,99930.16
2024-04-19T20:56:04.266Z,99936.97
2024-04-19T20:58:34.369Z,99939.91
2024-04-19T21:01:10.552Z,99946.97
2024-04-19T21:03:45.650Z,99946.53
2024-04-19T21:06:17.250Z,99951.91
2024-04-19T21:08:47.246Z,99952.72
2024-04-19T21:11:17.174Z,99964.72
2024-04-19T21:13:47.157Z,99974.28
2024-04-19T21:16:18.155Z,99975.50
2024-04-19T21:18:50.568Z,99986.94
2024-04-19T21:21:20.523Z,99990.06
2024-04-19T21:23:53.652Z,99996.47
2024-04-19T21:26:23.875Z,100009.56
2024-04-19T21:28:55.682Z,100011.81
2024-04-19T21:31:25.627Z,100018.25
2024-04-19T21:33:58.203Z,100021.97
2024-04-19T21:36:31.567Z,100021.31
2024-04-19T21:39:01.530Z,100031.47
2024-04-19T21:41:31.417Z,100038.47
2024-04-19T21:44:02.169Z,100045.09
2024-04-19T21:46:32.135Z,100052.75
2024-04-19T21:49:04.720Z,100059.59
2024-04-19T21:51:37.850Z,100056.25
2024-04-19T21:54:13.045Z,100065.00
2024-04-19T21:56:42.897Z,100073.09
2024-04-19T21:59:12.648Z,100073.25
2024-04-19T22:01:44.564Z,100074.31
2024-04-19T22:04:18.159Z,100096.06
2024-04-19T22:06:48.066Z,100092.31
2024-04-19T22:09:17.832Z,100094.75
2024-04-19T22:11:47.856Z,100099.28
2024-04-19T22:14:19.112Z,100106.97
2024-04-19T22:16:48.976Z,100102.03
2024-04-19T22:19:21.320Z,100111.31
2024-04-19T22:21:51.160Z,100121.03
2024-04-19T22:24:20.872Z,100129.09
2024-04-19T22:26:52.635Z,100122.88
2024-04-19T22:29:22.410Z,100138.94
2024-04-19T22:31:55.676Z,100149.31
2024-04-19T22:34:28.655Z,100145.78
2024-04-19T22:36:59.016Z,100151.53
2024-04-19T22:39:28.936Z,100159.31
2024-04-19T22:41:58.636Z,100168.44
2024-04-19T22:44:28.620Z,100172.16
2024-04-19T22:46:58.400Z,100183.13
2024-04-19T22:49:31.493Z,100182.25
2024-04-19T22:52:01.254Z,100186.19
2024-04-19T22:54:31.056Z,100187.31
2024-04-19T22:57:00.738Z,100195.78
2024-04-19T22:59:30.938Z,100185.94
2024-04-19T23:02:00.711Z,100195.13
2024-04-19T23:04:33.179Z,100205.53
2024-04-19T23:07:03.522Z,100205.72
2024-04-19T23:09:33.317Z,100214.44
2024-04-19T23:12:03.892Z,100214.25
2024-04-19T23:14:33.620Z,100212.13
2024-04-19T23:17:03.349Z,100226.44
2024-04-19T23:19:35.746Z,100231.53
2024-04-19T23:22:05.676Z,100226.44
2024-04-19T23:24:35.641Z,100233.69
2024-04-19T23:27:05.400Z,100239.69
2024-04-19T23:29:35.111Z,100242.03
2024-04-19T23:32:04.809Z,100257.94
2024-04-19T23:34:37.168Z,100259.75
2024-04-19T23:37:09.543Z,100258.00
2024-04-19T23:39:39.449Z,100272.94
2024-04-19T23:42:09.651Z,100272.94
2024-04-19T23:44:39.377Z,100274.94
2024-04-19T23:47:10.620Z,100283.84
2024-04-19T23:49:42.985Z,100290.22
2024-04-19T23:52:14.188Z,100289.41
2024-04-19T23:54:43.928Z,100296.66
2024-04-19T23:57:13.652Z,100289.88
2024-04-19T23:59:44.215Z,100302.78
